Wellington International Airport
NZWN : now visible

Airfield :











YOU CAN JOIN US ON...

 
LOGIN :

Register | Disclaimer

   EN    FR    IT 

 









Legend :    VFR   Marginal VFR   IFR   Intensive IFR   Very Intensive IFR
Visi :
Ceiling :
>= 8 km
>= 3000ft
5 to 8 km
1000 to 3000 ft
1500m to 5 km
500 to 1000 ft
800 to 1500m
200 to 500 ft
< 800m
< 200 ft
Symbols :   Thunderstorms  Fog  Heavy snow  Heavy precipitations  Wind > 20 kt






- Airport Elevation : 41 ft
- IATA code : WLG


NZWN - Wellington International

CURRENT METAR :
  • 191330Z AUTO 01021KT 7000 -RA BKN015/// BKN020/// 11/10 Q1007 BECMG 01020G30KT TEMPO 6000 RA BKN014

EXPIRED METARs :
  • 191300Z AUTO 01019KT 9999 -RA BKN016/// OVC022/// 11/10 Q1008 BECMG 01020G30KT TEMPO 6000 RA BKN014
  • 191230Z AUTO 01022KT 5000 -RA HZ BKN015/// BKN020/// 11/10 Q1008 BECMG 01022G32KT 9999 BKN020 TEMPO 6000 RA BKN014
  • 191200Z AUTO 01023G35KT 9999 -RA OVC018/// 12/10 Q1009 REDZ TEMPO 6000 RA BKN014
  • 191130Z AUTO 36024G35KT 9999 BKN021/// BKN026/// BKN032/// 12/09 Q1009 TEMPO 6000 RA BKN014
  • 191100Z AUTO 35024G41KT 9999 BKN022/// BKN029/// OVC038/// 13/09 Q1009 TEMPO 6000 RA BKN014

TAF TAF NZWN
Valid from the 19 at 12:00 until the 20 at 12:00 UTC


191107Z 1912/2012 35020G32KT 9999 BKN022
TEMPO 1912/1916 6000 RA BKN014
FM191600 34015KT 9999 FEW030
NZZC FIR / Oceania



MET'MAP, your aeronautical weather chart ! - Copyright ORBIFLY December 2007 - Disclaimer

ORBIFLY MET'MAP TEAM :

Programming & Development : Alexandra Zaïnal
Concept & original design : Baudouin d'Aumeries
Assistance for programming : Marc-Olivier Méhu
Technical & hardware support : Manuel Goepfert

Contact : metmap@orbifly.com




SOURCES & CREDITS :

   NOAA       Earth
Advisory